createdAt,value
2017-10-05T00:02:05.196Z,6.40
2017-10-05T00:04:32.675Z,5.40
2017-10-05T00:07:00.160Z,5.33
2017-10-05T00:09:28.412Z,5.70
2017-10-05T00:11:55.880Z,5.47
2017-10-05T00:14:23.369Z,5.80
2017-10-05T00:16:50.843Z,4.53
2017-10-05T00:19:18.351Z,5.20
2017-10-05T00:21:45.817Z,4.57
2017-10-05T00:24:13.300Z,5.17
2017-10-05T00:26:40.771Z,4.60
2017-10-05T00:29:08.239Z,5.60
2017-10-05T00:31:35.703Z,5.07
2017-10-05T00:34:03.179Z,5.63
2017-10-05T00:36:30.668Z,6.37
2017-10-05T00:38:58.914Z,5.37
2017-10-05T00:41:26.390Z,5.13
2017-10-05T00:43:53.864Z,5.07
2017-10-05T00:46:22.108Z,4.70
2017-10-05T00:48:49.590Z,4.90
2017-10-05T00:51:17.051Z,5.20
2017-10-05T00:53:45.301Z,3.87
2017-10-05T00:56:12.774Z,4.27
2017-10-05T00:58:40.244Z,5.23
2017-10-05T01:01:07.719Z,5.10
2017-10-05T01:03:35.955Z,4.77
2017-10-05T01:06:03.442Z,5.30
2017-10-05T01:08:31.673Z,5.60
2017-10-05T01:10:59.173Z,6.00
2017-10-05T01:13:26.635Z,5.57
2017-10-05T01:15:55.000Z,5.10
2017-10-05T01:18:22.465Z,5.20
2017-10-05T01:20:49.969Z,5.80
2017-10-05T01:23:17.444Z,3.93
2017-10-05T01:25:44.937Z,5.67
2017-10-05T01:28:12.398Z,4.77
2017-10-05T01:30:39.878Z,4.90
2017-10-05T01:33:08.126Z,4.93
2017-10-05T01:35:35.597Z,4.43
2017-10-05T01:38:03.852Z,5.50
2017-10-05T01:40:31.311Z,4.90
2017-10-05T01:42:58.792Z,5.90
2017-10-05T01:45:27.034Z,4.30
2017-10-05T01:47:54.516Z,5.50
2017-10-05T01:50:21.988Z,5.43
2017-10-05T01:52:50.229Z,5.30
2017-10-05T01:55:17.696Z,5.20
2017-10-05T01:57:45.183Z,4.33
2017-10-05T02:00:13.424Z,5.37
2017-10-05T02:02:40.939Z,4.20
2017-10-05T02:05:08.412Z,4.83
2017-10-05T02:07:35.895Z,3.23
2017-10-05T02:10:03.366Z,4.50
2017-10-05T02:12:30.844Z,4.10
2017-10-05T02:14:58.316Z,4.90
2017-10-05T02:17:26.568Z,4.73
2017-10-05T02:19:54.038Z,4.60
2017-10-05T02:22:21.507Z,4.90
2017-10-05T02:24:48.983Z,5.17
2017-10-05T02:27:16.465Z,5.10
2017-10-05T02:29:43.936Z,4.80
2017-10-05T02:32:11.522Z,4.60
2017-10-05T02:34:38.983Z,4.53
2017-10-05T02:37:06.458Z,4.43
2017-10-05T02:39:34.688Z,5.00
2017-10-05T02:42:02.166Z,4.13
2017-10-05T02:44:29.646Z,4.67
2017-10-05T02:46:57.908Z,4.53
2017-10-05T02:49:33.304Z,3.40
2017-10-05T02:52:00.823Z,3.80
2017-10-05T02:54:29.062Z,4.03
2017-10-05T02:56:56.523Z,3.80
2017-10-05T02:59:24.016Z,3.63
2017-10-05T03:01:51.489Z,4.30
2017-10-05T03:04:19.750Z,3.43
2017-10-05T03:06:47.218Z,3.80
2017-10-05T03:09:15.455Z,3.50
2017-10-05T03:11:42.941Z,3.43
2017-10-05T03:14:10.414Z,3.27
2017-10-05T03:16:38.654Z,3.47
2017-10-05T03:19:06.141Z,3.50
2017-10-05T03:21:34.380Z,3.47
2017-10-05T03:24:01.855Z,2.37
2017-10-05T03:26:29.338Z,3.23
2017-10-05T03:28:57.604Z,3.00
2017-10-05T03:31:25.067Z,2.10
2017-10-05T03:33:54.079Z,2.30
2017-10-05T03:36:21.572Z,2.70
2017-10-05T03:38:49.042Z,2.67
2017-10-05T03:41:16.569Z,2.50
2017-10-05T03:43:44.044Z,2.70
2017-10-05T03:46:11.508Z,1.90
2017-10-05T03:48:38.975Z,2.40
2017-10-05T03:51:06.534Z,2.10
2017-10-05T03:53:34.007Z,2.43
2017-10-05T03:56:01.478Z,2.60
2017-10-05T03:58:28.948Z,2.13
2017-10-05T04:00:57.191Z,2.30
2017-10-05T04:03:26.171Z,2.33
2017-10-05T04:05:53.638Z,2.10
2017-10-05T04:08:21.112Z,1.97
2017-10-05T04:10:48.610Z,1.80
2017-10-05T04:13:16.865Z,1.50
2017-10-05T04:15:45.118Z,1.70
2017-10-05T04:18:13.352Z,2.03
2017-10-05T04:20:40.833Z,1.87
2017-10-05T04:23:08.300Z,1.77
2017-10-05T04:25:35.773Z,1.73
2017-10-05T04:28:03.256Z,1.80
2017-10-05T04:30:31.489Z,1.30
2017-10-05T04:32:58.972Z,1.40
2017-10-05T04:35:26.447Z,1.10
2017-10-05T04:37:53.938Z,1.10
2017-10-05T04:40:22.200Z,1.00
2017-10-05T04:42:49.696Z,0.77
2017-10-05T04:45:17.159Z,0.93
2017-10-05T04:47:44.645Z,0.87
2017-10-05T04:50:12.095Z,0.83
2017-10-05T04:52:39.578Z,0.83
2017-10-05T04:55:07.146Z,0.50
2017-10-05T04:57:34.632Z,0.80
2017-10-05T05:00:02.890Z,1.00
2017-10-05T05:02:30.444Z,0.90
2017-10-05T05:04:57.902Z,0.70
2017-10-05T05:07:25.388Z,0.70
2017-10-05T05:09:53.640Z,0.70
2017-10-05T05:12:21.105Z,0.80
2017-10-05T05:14:48.570Z,0.53
2017-10-05T05:17:16.826Z,0.73
2017-10-05T05:19:44.395Z,0.73
2017-10-05T05:22:13.382Z,0.80
2017-10-05T05:24:40.854Z,0.50
2017-10-05T05:27:08.400Z,0.50
2017-10-05T05:29:35.959Z,0.67
2017-10-05T05:32:04.192Z,0.60
2017-10-05T05:34:31.690Z,0.63
2017-10-05T05:36:59.182Z,0.50
2017-10-05T05:39:27.412Z,0.50
2017-10-05T05:41:54.874Z,0.40
2017-10-05T05:44:22.445Z,0.40
2017-10-05T05:46:50.044Z,0.50
2017-10-05T05:49:18.386Z,0.60
2017-10-05T05:51:45.944Z,0.50
2017-10-05T05:54:13.418Z,0.60
2017-10-05T05:56:40.986Z,0.43
2017-10-05T05:59:09.231Z,0.50
2017-10-05T06:01:36.799Z,0.40
2017-10-05T06:04:04.289Z,0.40
2017-10-05T06:06:32.527Z,0.33
2017-10-05T06:09:00.002Z,0.40
2017-10-05T06:11:27.557Z,0.40
2017-10-05T06:13:55.028Z,0.50
2017-10-05T06:16:22.491Z,0.50
2017-10-05T06:18:50.725Z,0.47
2017-10-05T06:21:18.195Z,0.57
2017-10-05T06:23:45.672Z,0.40
2017-10-05T06:26:13.152Z,0.47
2017-10-05T06:28:41.412Z,0.40
2017-10-05T06:31:09.668Z,0.83
2017-10-05T06:33:37.911Z,0.63
2017-10-05T06:36:08.896Z,0.53
2017-10-05T06:38:36.375Z,0.40
2017-10-05T06:41:03.844Z,0.60
2017-10-05T06:43:31.323Z,0.40
2017-10-05T06:45:59.565Z,0.60
2017-10-05T06:48:27.134Z,0.50
2017-10-05T06:50:54.619Z,0.50
2017-10-05T06:53:22.839Z,0.63
2017-10-05T06:55:50.303Z,0.77
2017-10-05T06:58:17.774Z,0.50
2017-10-05T07:00:45.240Z,0.60
2017-10-05T07:03:12.792Z,0.80
2017-10-05T07:05:40.256Z,0.67
2017-10-05T07:08:07.731Z,0.60
2017-10-05T07:10:35.991Z,0.50
2017-10-05T07:13:03.547Z,0.70
2017-10-05T07:15:31.179Z,0.73
2017-10-05T07:17:58.677Z,0.70
2017-10-05T07:20:26.233Z,1.43
2017-10-05T07:22:53.707Z,0.80
2017-10-05T07:25:21.944Z,0.70
2017-10-05T07:27:49.541Z,0.97
2017-10-05T07:30:17.009Z,0.97
2017-10-05T07:32:45.249Z,0.77
2017-10-05T07:35:12.735Z,0.63
2017-10-05T07:37:40.991Z,0.70
2017-10-05T07:40:08.459Z,0.80
2017-10-05T07:42:35.928Z,0.70
2017-10-05T07:45:04.184Z,0.57
2017-10-05T07:47:31.745Z,0.50
2017-10-05T07:49:59.320Z,0.90
2017-10-05T07:52:26.939Z,0.40
2017-10-05T07:54:54.436Z,0.60
2017-10-05T07:57:21.991Z,0.60
2017-10-05T07:59:49.555Z,0.50
2017-10-05T08:02:23.232Z,0.60
2017-10-05T08:04:50.907Z,0.50
2017-10-05T08:07:18.371Z,0.63
2017-10-05T08:09:45.936Z,0.50
2017-10-05T08:12:13.428Z,0.40
2017-10-05T08:14:41.662Z,0.63
2017-10-05T08:17:09.237Z,0.40
2017-10-05T08:19:36.784Z,0.70
2017-10-05T08:22:04.360Z,0.53
2017-10-05T08:24:32.635Z,0.90
2017-10-05T08:27:01.639Z,0.70
2017-10-05T08:29:29.103Z,0.60
2017-10-05T08:31:57.339Z,1.20
2017-10-05T08:34:24.944Z,1.10
2017-10-05T08:36:53.196Z,1.40
2017-10-05T08:39:22.188Z,1.73
2017-10-05T08:41:50.411Z,0.57
2017-10-05T08:44:17.889Z,0.87
2017-10-05T08:46:45.385Z,0.40
2017-10-05T08:49:13.204Z,0.60
2017-10-05T08:51:40.816Z,0.60
2017-10-05T08:54:09.100Z,0.50
2017-10-05T08:56:36.647Z,0.50
2017-10-05T08:59:04.211Z,0.60
2017-10-05T09:01:31.741Z,0.50
2017-10-05T09:03:59.211Z,0.30
2017-10-05T09:06:26.675Z,0.30
2017-10-05T09:08:54.189Z,0.50
2017-10-05T09:11:21.647Z,0.63
2017-10-05T09:13:49.228Z,0.73
2017-10-05T09:16:16.729Z,0.60
2017-10-05T09:18:44.202Z,0.60
2017-10-05T09:21:12.453Z,0.50
2017-10-05T09:23:39.916Z,0.40
2017-10-05T09:26:07.383Z,0.40
2017-10-05T09:28:34.863Z,0.40
2017-10-05T09:31:03.091Z,0.50
2017-10-05T09:33:30.563Z,0.50
2017-10-05T09:38:36.337Z,0.30
2017-10-05T09:41:05.320Z,0.40
2017-10-05T09:43:32.783Z,0.50
2017-10-05T09:46:00.262Z,0.30
2017-10-05T09:48:28.516Z,0.40
2017-10-05T09:50:55.979Z,0.50
2017-10-05T09:53:23.444Z,0.50
2017-10-05T09:55:50.914Z,0.47
2017-10-05T09:58:22.414Z,0.40
2017-10-05T10:00:49.882Z,0.30
2017-10-05T10:03:17.347Z,0.30
2017-10-05T10:05:44.824Z,0.40
2017-10-05T10:08:12.287Z,0.30
2017-10-05T10:10:39.816Z,0.40
2017-10-05T10:13:07.294Z,0.40
2017-10-05T10:15:34.781Z,0.20
2017-10-05T10:18:03.007Z,0.20
2017-10-05T10:20:30.495Z,0.50
2017-10-05T10:22:57.955Z,0.40
2017-10-05T10:25:25.440Z,0.40
2017-10-05T10:27:53.672Z,0.50
2017-10-05T10:30:21.240Z,0.60
2017-10-05T10:32:48.711Z,0.73
2017-10-05T10:35:16.188Z,0.50
2017-10-05T10:38:04.823Z,0.60
2017-10-05T10:40:32.308Z,0.60
2017-10-05T10:43:00.539Z,0.80
2017-10-05T10:45:28.004Z,0.90
2017-10-05T10:47:55.476Z,0.67
2017-10-05T10:50:23.051Z,0.80
2017-10-05T10:52:51.511Z,0.80
2017-10-05T10:55:18.988Z,0.70
2017-10-05T10:57:46.626Z,0.80
2017-10-05T11:00:14.861Z,0.90
2017-10-05T11:02:42.333Z,0.50
2017-10-05T11:05:09.804Z,1.00
2017-10-05T11:07:37.284Z,0.50
2017-10-05T11:10:04.760Z,0.70
2017-10-05T11:12:33.118Z,0.70
2017-10-05T11:15:00.592Z,0.63
2017-10-05T11:17:28.071Z,1.00
2017-10-05T11:19:56.308Z,0.80
2017-10-05T11:22:24.000Z,1.13
2017-10-05T11:24:52.233Z,0.90
2017-10-05T11:27:19.715Z,0.60
2017-10-05T11:29:47.184Z,0.70
2017-10-05T11:32:16.278Z,0.63
2017-10-05T11:34:43.799Z,0.77
2017-10-05T11:37:11.314Z,0.80
2017-10-05T11:39:38.779Z,0.80
2017-10-05T11:42:06.235Z,0.87
2017-10-05T11:44:33.721Z,0.80
2017-10-05T11:47:02.093Z,1.17
2017-10-05T11:49:29.576Z,0.90
2017-10-05T11:51:57.047Z,1.00
2017-10-05T11:54:24.520Z,1.17
2017-10-05T11:56:51.987Z,1.07
2017-10-05T11:59:20.226Z,0.80
2017-10-05T12:01:47.708Z,1.10
2017-10-05T12:04:15.214Z,0.90
2017-10-05T12:06:42.701Z,0.90
2017-10-05T12:09:10.941Z,1.20
2017-10-05T12:11:38.407Z,1.00
2017-10-05T12:14:05.875Z,1.60
2017-10-05T12:16:33.340Z,1.70
2017-10-05T12:19:00.822Z,0.80
2017-10-05T12:21:28.292Z,1.10
2017-10-05T12:23:55.768Z,0.77
2017-10-05T12:26:24.005Z,1.13
2017-10-05T12:28:51.484Z,0.70
2017-10-05T12:31:18.944Z,0.80
2017-10-05T12:33:46.418Z,0.70
2017-10-05T12:36:14.655Z,0.50
2017-10-05T12:38:42.332Z,1.03
2017-10-05T12:41:16.498Z,0.70
2017-10-05T12:43:44.618Z,1.30
2017-10-05T12:46:12.088Z,0.50
2017-10-05T12:48:39.543Z,0.60
2017-10-05T12:51:07.036Z,0.73
2017-10-05T12:53:35.300Z,0.43
2017-10-05T12:56:03.545Z,0.53
2017-10-05T12:58:31.012Z,1.50
2017-10-05T13:00:58.498Z,1.27
2017-10-05T13:03:26.727Z,0.97
2017-10-05T13:05:55.061Z,1.30
2017-10-05T13:08:22.533Z,0.50
2017-10-05T13:10:50.528Z,0.63
2017-10-05T13:13:18.767Z,0.87
2017-10-05T13:15:46.240Z,0.83
2017-10-05T13:18:13.703Z,0.93
2017-10-05T13:20:41.188Z,0.60
2017-10-05T13:23:08.659Z,0.70
2017-10-05T13:25:36.133Z,0.97
2017-10-05T13:28:03.620Z,0.97
2017-10-05T13:30:31.106Z,0.63
2017-10-05T13:32:58.592Z,0.63
2017-10-05T13:35:26.066Z,0.67
2017-10-05T13:37:53.551Z,0.90
2017-10-05T13:40:21.029Z,0.50
2017-10-05T13:42:48.492Z,0.83
2017-10-05T13:45:15.958Z,1.30
2017-10-05T13:47:43.461Z,2.17
2017-10-05T13:50:11.701Z,1.70
2017-10-05T13:52:39.218Z,2.10
2017-10-05T13:55:06.676Z,1.70
2017-10-05T13:57:34.173Z,1.70
2017-10-05T14:00:01.639Z,1.30
2017-10-05T14:02:29.117Z,1.63
2017-10-05T14:04:56.583Z,1.20
2017-10-05T14:07:24.067Z,1.40
2017-10-05T14:09:51.528Z,1.10
2017-10-05T14:12:19.008Z,1.03
2017-10-05T14:14:46.552Z,1.13
2017-10-05T14:17:14.041Z,0.90
2017-10-05T14:19:41.507Z,1.17
2017-10-05T14:22:08.996Z,0.83
2017-10-05T14:24:36.466Z,0.90
2017-10-05T14:27:04.694Z,1.17
2017-10-05T14:29:32.928Z,1.07
2017-10-05T14:32:00.396Z,1.97
2017-10-05T14:34:27.869Z,1.30
2017-10-05T14:36:55.343Z,0.83
2017-10-05T14:39:22.822Z,1.47
2017-10-05T14:41:50.282Z,1.30
2017-10-05T14:44:17.768Z,1.60
2017-10-05T14:46:46.412Z,0.80
2017-10-05T14:49:13.874Z,0.80
2017-10-05T14:51:41.340Z,1.03
2017-10-05T14:54:08.866Z,1.23
2017-10-05T14:56:36.449Z,1.00
2017-10-05T14:59:03.932Z,0.63
2017-10-05T15:01:31.400Z,1.10
2017-10-05T15:03:59.638Z,1.00
2017-10-05T15:06:27.163Z,1.10
2017-10-05T15:08:54.639Z,1.03
2017-10-05T15:11:22.110Z,0.93
2017-10-05T15:13:49.595Z,0.87
2017-10-05T15:16:18.387Z,0.80
2017-10-05T15:18:45.859Z,1.20
2017-10-05T15:21:14.099Z,1.10
2017-10-05T15:23:41.568Z,1.20
2017-10-05T15:26:09.047Z,1.83
2017-10-05T15:28:36.507Z,1.40
2017-10-05T15:31:04.755Z,1.10
2017-10-05T15:33:32.220Z,4.57
2017-10-05T15:35:59.692Z,4.37
2017-10-05T15:38:27.168Z,4.23
2017-10-05T15:40:55.417Z,1.40
2017-10-05T15:43:22.885Z,2.23
2017-10-05T15:45:50.359Z,1.70
2017-10-05T15:48:18.590Z,2.37
2017-10-05T15:50:46.067Z,2.77
2017-10-05T15:53:13.709Z,2.00
2017-10-05T15:55:41.194Z,2.70
2017-10-05T15:58:08.691Z,1.30
2017-10-05T16:00:36.186Z,1.10
2017-10-05T16:03:04.411Z,1.00
2017-10-05T16:05:32.648Z,1.10
2017-10-05T16:08:00.106Z,1.60
2017-10-05T16:10:27.579Z,1.10
2017-10-05T16:12:55.058Z,1.30
2017-10-05T16:15:23.301Z,2.23
2017-10-05T16:17:50.766Z,1.90
2017-10-05T16:20:18.251Z,1.87
2017-10-05T16:22:46.711Z,1.70
2017-10-05T16:25:14.184Z,2.17
2017-10-05T16:27:42.428Z,1.53
2017-10-05T16:30:09.904Z,1.80
2017-10-05T16:32:37.391Z,1.80
2017-10-05T16:35:05.629Z,1.60
2017-10-05T16:37:33.101Z,1.20
2017-10-05T16:40:00.559Z,1.23
2017-10-05T16:42:28.031Z,1.80
2017-10-05T16:44:56.271Z,1.80
2017-10-05T16:47:23.744Z,2.20
2017-10-05T16:49:51.203Z,1.50
2017-10-05T16:52:18.680Z,2.20
2017-10-05T16:54:46.919Z,1.97
2017-10-05T16:57:14.382Z,1.83
2017-10-05T16:59:41.846Z,1.70
2017-10-05T17:02:09.327Z,1.70
2017-10-05T17:04:36.791Z,1.53
2017-10-05T17:07:05.036Z,1.57
2017-10-05T17:09:32.516Z,1.53
2017-10-05T17:12:00.188Z,1.70
2017-10-05T17:14:27.656Z,1.40
2017-10-05T17:16:55.887Z,2.07
2017-10-05T17:19:23.364Z,1.10
2017-10-05T17:21:50.819Z,2.07
2017-10-05T17:24:18.296Z,1.60
2017-10-05T17:26:45.776Z,1.30
2017-10-05T17:29:14.007Z,1.57
2017-10-05T17:31:41.472Z,1.77
2017-10-05T17:34:08.960Z,1.83
2017-10-05T17:36:37.196Z,1.30
2017-10-05T17:39:04.700Z,1.50
2017-10-05T17:41:32.169Z,2.17
2017-10-05T17:43:59.640Z,1.90
2017-10-05T17:46:30.506Z,1.60
2017-10-05T17:48:57.979Z,1.93
2017-10-05T17:51:25.460Z,1.80
2017-10-05T17:53:52.936Z,1.70
2017-10-05T17:56:20.401Z,1.70
2017-10-05T17:58:48.654Z,2.87
2017-10-05T18:01:16.122Z,2.00
2017-10-05T18:03:43.622Z,2.10
2017-10-05T18:06:11.078Z,1.73
2017-10-05T18:08:38.551Z,2.23
2017-10-05T18:11:06.019Z,2.20
2017-10-05T18:13:33.493Z,2.07
2017-10-05T18:16:01.004Z,2.43
2017-10-05T18:18:28.461Z,2.13
2017-10-05T18:20:55.943Z,2.20
2017-10-05T18:23:23.404Z,1.77
2017-10-05T18:25:50.874Z,2.33
2017-10-05T18:28:19.138Z,1.50
2017-10-05T18:30:46.623Z,1.60
2017-10-05T18:33:14.090Z,2.27
2017-10-05T18:35:41.570Z,2.50
2017-10-05T18:38:09.799Z,2.77
2017-10-05T18:40:37.285Z,1.97
2017-10-05T18:43:05.526Z,2.63
2017-10-05T18:45:33.004Z,2.30
2017-10-05T18:48:00.475Z,4.93
2017-10-05T18:50:28.720Z,3.37
2017-10-05T18:52:56.945Z,2.60
2017-10-05T18:55:24.419Z,2.47
2017-10-05T18:57:51.882Z,2.63
2017-10-05T19:00:19.377Z,2.50
2017-10-05T19:02:46.851Z,2.47
2017-10-05T19:05:14.325Z,2.70
2017-10-05T19:07:41.814Z,2.70
2017-10-05T19:10:09.270Z,2.77
2017-10-05T19:12:36.743Z,2.37
2017-10-05T19:15:04.220Z,3.00
2017-10-05T19:17:32.460Z,2.67
2017-10-05T19:19:59.928Z,2.50
2017-10-05T19:22:27.414Z,2.60
2017-10-05T19:24:55.639Z,2.37
2017-10-05T19:27:23.130Z,1.83
2017-10-05T19:29:50.605Z,2.07
2017-10-05T19:32:18.857Z,3.50
2017-10-05T19:34:46.337Z,2.10
2017-10-05T19:37:14.821Z,2.07
2017-10-05T19:39:43.051Z,4.00
2017-10-05T19:42:10.552Z,3.10
2017-10-05T19:44:38.041Z,3.50
2017-10-05T19:47:05.552Z,2.57
2017-10-05T19:49:33.011Z,2.90
2017-10-05T19:52:00.866Z,3.17
2017-10-05T19:54:28.336Z,1.73
2017-10-05T19:56:55.827Z,2.90
2017-10-05T19:59:23.341Z,2.57
2017-10-05T20:01:50.840Z,2.63
2017-10-05T20:04:18.317Z,2.73
2017-10-05T20:06:45.786Z,2.40
2017-10-05T20:09:14.039Z,3.37
2017-10-05T20:11:41.513Z,2.63
2017-10-05T20:14:09.007Z,2.80
2017-10-05T20:19:39.924Z,2.03
2017-10-05T20:22:28.694Z,2.20
2017-10-05T20:24:59.568Z,3.37
2017-10-05T20:27:27.772Z,2.70
2017-10-05T20:30:13.692Z,4.20
2017-10-05T20:32:56.077Z,3.03
2017-10-05T20:35:24.307Z,1.53
2017-10-05T20:37:52.549Z,2.80
2017-10-05T20:40:20.038Z,2.40
2017-10-05T20:42:47.512Z,2.90
2017-10-05T20:45:15.108Z,2.67
2017-10-05T20:47:43.351Z,2.70
2017-10-05T20:50:10.844Z,2.20
2017-10-05T20:52:39.073Z,2.40
2017-10-05T20:55:06.557Z,2.83
2017-10-05T20:57:34.028Z,2.37
2017-10-05T21:00:02.290Z,2.73
2017-10-05T21:02:29.765Z,3.43
2017-10-05T21:04:58.006Z,2.60
2017-10-05T21:07:25.488Z,2.83
2017-10-05T21:09:53.045Z,3.20
2017-10-05T21:12:20.543Z,3.17
2017-10-05T21:14:48.024Z,2.57
2017-10-05T21:17:15.874Z,2.80
2017-10-05T21:19:43.352Z,2.63
2017-10-05T21:22:12.824Z,3.27
2017-10-05T21:24:40.316Z,2.93
2017-10-05T21:27:07.790Z,3.13
2017-10-05T21:29:35.274Z,3.40
2017-10-05T21:32:02.759Z,2.30
2017-10-05T21:34:30.261Z,3.53
2017-10-05T21:36:57.752Z,3.30
2017-10-05T21:39:25.853Z,3.30
2017-10-05T21:41:53.329Z,2.30
2017-10-05T21:44:21.582Z,2.80
2017-10-05T21:46:49.844Z,2.63
2017-10-05T21:49:17.341Z,3.50
2017-10-05T21:51:45.602Z,2.77
2017-10-05T21:54:13.845Z,1.53
2017-10-05T21:56:41.331Z,2.77
2017-10-05T21:59:08.810Z,2.37
2017-10-05T22:01:37.072Z,2.97
2017-10-05T22:04:04.545Z,2.57
2017-10-05T22:06:32.797Z,2.63
2017-10-05T22:09:00.277Z,3.10
2017-10-05T22:11:28.532Z,3.17
2017-10-05T22:13:56.005Z,2.70
2017-10-05T22:16:24.273Z,2.97
2017-10-05T22:18:51.747Z,2.93
2017-10-05T22:21:19.997Z,4.10
2017-10-05T22:23:47.515Z,2.57
2017-10-05T22:26:15.022Z,4.33
2017-10-05T22:28:42.504Z,2.83
2017-10-05T22:31:10.741Z,2.83
2017-10-05T22:33:38.225Z,2.50
2017-10-05T22:36:05.710Z,3.10
2017-10-05T22:38:33.202Z,3.40
2017-10-05T22:41:00.700Z,3.33
2017-10-05T22:43:28.181Z,3.10
2017-10-05T22:45:55.656Z,4.47
2017-10-05T22:48:23.141Z,3.57
2017-10-05T22:50:50.616Z,3.30
2017-10-05T22:53:18.105Z,3.00
2017-10-05T22:55:46.353Z,3.20
2017-10-05T22:58:13.841Z,2.40
2017-10-05T23:00:41.342Z,2.83
2017-10-05T23:03:08.821Z,3.20
2017-10-05T23:05:36.292Z,2.60
2017-10-05T23:08:03.808Z,3.00
2017-10-05T23:10:31.275Z,3.70
2017-10-05T23:12:58.756Z,2.83
2017-10-05T23:15:26.242Z,2.80
2017-10-05T23:17:54.523Z,3.57
2017-10-05T23:20:22.849Z,2.53
2017-10-05T23:22:50.330Z,4.10
2017-10-05T23:25:17.815Z,3.40
2017-10-05T23:27:46.061Z,2.77
2017-10-05T23:30:13.551Z,2.40
2017-10-05T23:32:41.793Z,3.57
2017-10-05T23:35:09.298Z,2.03
2017-10-05T23:37:37.545Z,2.90
2017-10-05T23:40:05.021Z,2.13
2017-10-05T23:42:33.274Z,2.70
2017-10-05T23:45:00.774Z,2.60
2017-10-05T23:47:28.245Z,2.70
2017-10-05T23:49:55.731Z,2.40
2017-10-05T23:52:23.220Z,2.40
2017-10-05T23:54:50.700Z,2.50
2017-10-05T23:57:18.942Z,2.70
2017-10-05T23:59:46.442Z,2.63
